createdAt,value
2022-12-13T00:00:46.060Z,91.20
2022-12-13T00:03:12.181Z,91.40
2022-12-13T00:05:43.867Z,91.30
2022-12-13T00:08:10.077Z,91.20
2022-12-13T00:10:36.461Z,91.20
2022-12-13T00:13:03.864Z,91.30
2022-12-13T00:15:31.570Z,91.30
2022-12-13T00:17:57.728Z,91.40
2022-12-13T00:20:23.998Z,91.40
2022-12-13T00:22:52.464Z,91.40
2022-12-13T00:25:20.746Z,91.20
2022-12-13T00:27:46.952Z,91.40
2022-12-13T00:30:13.250Z,91.30
2022-12-13T00:32:39.438Z,91.60
2022-12-13T00:35:06.502Z,91.30
2022-12-13T00:37:32.628Z,91.10
2022-12-13T00:39:58.935Z,91.10
2022-12-13T00:42:25.433Z,91.60
2022-12-13T00:44:51.699Z,91.50
2022-12-13T00:47:20.141Z,91.60
2022-12-13T00:49:46.408Z,91.30
2022-12-13T00:52:13.022Z,91.30
2022-12-13T00:54:39.464Z,91.30
2022-12-13T00:57:05.701Z,91.20
2022-12-13T00:59:31.824Z,91.20
2022-12-13T01:01:58.076Z,91.30
2022-12-13T01:04:24.195Z,91.20
2022-12-13T01:06:50.919Z,91.30
2022-12-13T01:09:22.961Z,91.40
2022-12-13T01:11:49.523Z,91.50
2022-12-13T01:14:17.271Z,91.40
2022-12-13T01:16:43.549Z,91.70
2022-12-13T01:19:09.702Z,91.60
2022-12-13T01:21:36.122Z,91.80
2022-12-13T01:24:03.495Z,91.50
2022-12-13T01:26:29.949Z,91.40
2022-12-13T01:28:56.129Z,91.60
2022-12-13T01:31:22.611Z,91.80
2022-12-13T01:33:48.791Z,91.40
2022-12-13T01:36:16.747Z,91.20
2022-12-13T01:38:43.972Z,91.30
2022-12-13T01:41:18.270Z,91.20
2022-12-13T01:43:54.937Z,91.10
2022-12-13T01:46:21.286Z,91.20
2022-12-13T01:49:06.113Z,91.50
2022-12-13T01:51:55.826Z,91.30
2022-12-13T01:54:24.310Z,91.10
2022-12-13T01:57:01.206Z,91.30
2022-12-13T01:59:27.337Z,91.30
2022-12-13T02:01:54.600Z,91.40
2022-12-13T02:04:53.469Z,91.40
2022-12-13T02:07:22.627Z,91.30
2022-12-13T02:09:57.193Z,91.40
2022-12-13T02:12:29.822Z,91.40
2022-12-13T02:15:00.825Z,91.40
2022-12-13T02:17:52.618Z,91.20
2022-12-13T02:20:57.226Z,91.30
2022-12-13T02:23:50.599Z,91.20
2022-12-13T02:31:31.782Z,91.10
2022-12-13T02:34:09.507Z,91.00
2022-12-13T02:36:53.468Z,91.00
2022-12-13T02:41:00.766Z,90.60
2022-12-13T02:44:01.385Z,90.70
2022-12-13T02:46:29.282Z,90.50
2022-12-13T02:48:55.676Z,90.50
2022-12-13T02:51:22.151Z,90.60
2022-12-13T02:53:48.322Z,90.60
2022-12-13T02:56:14.571Z,90.50
2022-12-13T02:58:43.438Z,90.60
2022-12-13T03:02:59.028Z,90.40
2022-12-13T03:06:59.657Z,90.20
2022-12-13T03:10:42.699Z,90.10
2022-12-13T03:13:31.670Z,90.40
2022-12-13T03:15:58.985Z,90.60
2022-12-13T03:18:28.394Z,91.30
2022-12-13T03:21:04.229Z,91.70
2022-12-13T03:23:30.432Z,91.70
2022-12-13T03:26:09.803Z,92.30
2022-12-13T03:28:36.377Z,99.90
2022-12-13T03:31:03.010Z,98.80
2022-12-13T03:33:29.348Z,99.20
2022-12-13T03:35:55.660Z,93.20
2022-12-13T03:38:23.443Z,99.00
2022-12-13T03:40:55.389Z,95.00
2022-12-13T03:43:22.567Z,99.90
2022-12-13T03:45:50.354Z,93.20
2022-12-13T03:50:50.873Z,99.90
2022-12-13T03:53:23.134Z,99.90
2022-12-13T03:56:01.010Z,93.60
2022-12-13T03:58:35.349Z,99.90
2022-12-13T04:01:08.071Z,93.30
2022-12-13T04:03:35.380Z,97.20
2022-12-13T04:08:28.526Z,99.30
2022-12-13T04:13:34.386Z,99.90
2022-12-13T04:16:01.636Z,97.60
2022-12-13T04:20:54.450Z,94.40
2022-12-13T04:23:21.438Z,95.50
2022-12-13T04:25:48.133Z,96.10
2022-12-13T04:28:22.240Z,94.00
2022-12-13T04:33:21.263Z,94.30
2022-12-13T04:35:47.969Z,94.40
2022-12-13T04:38:14.178Z,99.90
2022-12-13T04:48:00.237Z,99.90
2022-12-13T04:57:47.709Z,99.90
2022-12-13T05:00:15.267Z,92.70
2022-12-13T05:05:09.596Z,99.40
2022-12-13T05:10:10.187Z,92.20
2022-12-13T05:19:56.103Z,98.80
2022-12-13T05:32:44.270Z,91.50
2022-12-13T05:35:22.181Z,90.90
2022-12-13T05:37:54.076Z,95.10
2022-12-13T05:40:24.939Z,94.20
2022-12-13T05:42:51.106Z,97.40
2022-12-13T05:45:18.407Z,97.80
2022-12-13T05:47:44.986Z,98.00
2022-12-13T05:50:11.964Z,91.20
2022-12-13T05:52:39.168Z,98.00
2022-12-13T05:55:06.072Z,98.10
2022-12-13T06:00:00.357Z,98.00
2022-12-13T06:07:20.634Z,98.30
2022-12-13T06:09:47.782Z,98.40
2022-12-13T06:12:31.853Z,98.30
2022-12-13T06:20:22.865Z,98.60
2022-12-13T06:22:51.469Z,98.80
2022-12-13T06:28:01.657Z,93.00
2022-12-13T06:30:30.924Z,92.20
2022-12-13T06:32:58.149Z,98.90
2022-12-13T06:35:28.704Z,93.00
2022-12-13T06:38:00.872Z,92.90
2022-12-13T06:40:29.734Z,93.10
2022-12-13T06:45:22.825Z,98.30
2022-12-13T06:47:49.322Z,94.80
2022-12-13T06:55:09.233Z,97.90
2022-12-13T06:57:35.473Z,98.10
2022-12-13T07:00:04.275Z,97.80
2022-12-13T07:02:30.892Z,94.30
2022-12-13T07:09:51.969Z,98.20
2022-12-13T07:12:21.056Z,98.00
2022-12-13T07:14:47.386Z,98.00
2022-12-13T07:17:13.692Z,98.10
2022-12-13T07:22:27.607Z,98.10
2022-12-13T07:24:53.876Z,98.00
2022-12-13T07:29:46.567Z,97.90
2022-12-13T07:32:12.758Z,92.70
2022-12-13T07:34:39.472Z,97.80
2022-12-13T07:37:05.735Z,97.70
2022-12-13T07:39:32.043Z,97.40
2022-12-13T07:41:58.242Z,97.70
2022-12-13T07:49:18.505Z,94.60
2022-12-13T07:51:44.658Z,97.30
2022-12-13T07:54:10.910Z,97.50
2022-12-13T07:56:37.113Z,97.30
2022-12-13T07:59:03.336Z,97.50
2022-12-13T08:01:33.695Z,97.50
2022-12-13T08:04:01.113Z,97.10
2022-12-13T08:06:27.625Z,96.90
2022-12-13T08:08:57.194Z,96.80
2022-12-13T08:13:50.220Z,96.70
2022-12-13T08:16:26.103Z,96.40
2022-12-13T08:18:53.099Z,96.10
2022-12-13T08:21:53.981Z,96.00
2022-12-13T08:24:21.180Z,95.60
2022-12-13T08:26:47.466Z,95.50
2022-12-13T08:29:23.552Z,89.10
2022-12-13T08:32:04.940Z,95.40
2022-12-13T08:34:31.165Z,94.90
2022-12-13T08:37:02.949Z,94.90
2022-12-13T08:39:37.437Z,94.70
2022-12-13T08:42:16.351Z,94.80
2022-12-13T08:44:48.466Z,94.80
2022-12-13T08:47:23.479Z,87.40
2022-12-13T08:49:52.483Z,86.90
2022-12-13T08:52:20.171Z,87.00
2022-12-13T08:54:46.744Z,94.30
2022-12-13T08:57:13.372Z,87.30
2022-12-13T08:59:40.068Z,94.00
2022-12-13T09:02:06.430Z,93.90
2022-12-13T09:04:33.060Z,93.50
2022-12-13T09:09:29.740Z,84.60
2022-12-13T09:11:59.296Z,93.60
2022-12-13T09:14:34.165Z,93.60
2022-12-13T09:17:02.718Z,93.50
2022-12-13T09:19:30.102Z,93.50
2022-12-13T09:22:03.986Z,84.90
2022-12-13T09:24:35.927Z,84.90
2022-12-13T09:27:09.828Z,93.20
2022-12-13T09:29:37.634Z,93.00
2022-12-13T09:32:04.841Z,93.30
2022-12-13T09:34:32.452Z,93.40
2022-12-13T09:37:01.462Z,93.40
2022-12-13T09:39:29.175Z,93.50
2022-12-13T09:42:01.111Z,93.10
2022-12-13T09:44:42.401Z,93.20
2022-12-13T09:47:39.529Z,84.30
2022-12-13T09:50:38.771Z,93.10
2022-12-13T09:53:11.947Z,84.10
2022-12-13T09:55:41.413Z,92.60
2022-12-13T09:58:28.326Z,81.70
2022-12-13T10:00:55.098Z,92.20
2022-12-13T10:03:22.661Z,82.10
2022-12-13T10:06:00.983Z,91.70
2022-12-13T10:08:39.789Z,91.70
2022-12-13T10:11:05.980Z,91.10
2022-12-13T10:13:46.370Z,90.70
2022-12-13T10:16:57.864Z,90.90
2022-12-13T10:19:38.938Z,79.70
2022-12-13T10:22:09.887Z,79.70
2022-12-13T10:25:00.300Z,80.80
2022-12-13T10:27:43.386Z,79.70
2022-12-13T10:30:17.607Z,79.60
2022-12-13T10:32:56.132Z,78.40
2022-12-13T10:35:30.363Z,78.80
2022-12-13T10:37:59.428Z,78.00
2022-12-13T10:40:36.843Z,77.60
2022-12-13T10:43:20.130Z,77.00
2022-12-13T10:46:01.911Z,75.50
2022-12-13T10:49:21.732Z,74.90
2022-12-13T10:51:49.723Z,89.10
2022-12-13T10:54:21.105Z,77.00
2022-12-13T10:56:50.738Z,76.60
2022-12-13T10:59:36.688Z,76.20
2022-12-13T11:02:35.881Z,75.40
2022-12-13T11:05:24.827Z,75.20
2022-12-13T11:07:51.378Z,77.20
2022-12-13T11:10:27.703Z,75.50
2022-12-13T11:12:59.871Z,75.80
2022-12-13T11:15:26.369Z,75.90
2022-12-13T11:18:02.748Z,76.30
2022-12-13T11:20:35.123Z,75.20
2022-12-13T11:23:15.938Z,74.80
2022-12-13T11:25:43.319Z,73.90
2022-12-13T11:30:13.748Z,74.70
2022-12-13T11:34:55.824Z,76.30
2022-12-13T11:38:00.776Z,76.70
2022-12-13T11:40:31.471Z,75.70
2022-12-13T11:44:04.827Z,76.60
2022-12-13T11:46:45.207Z,76.00
2022-12-13T11:49:19.338Z,76.50
2022-12-13T11:51:51.856Z,77.00
2022-12-13T11:54:34.577Z,77.70
2022-12-13T11:57:05.575Z,77.80
2022-12-13T11:59:41.833Z,77.80
2022-12-13T12:02:29.820Z,77.40
2022-12-13T12:05:00.565Z,77.00
2022-12-13T12:08:12.741Z,77.90
2022-12-13T12:11:53.528Z,78.10
2022-12-13T12:14:43.261Z,78.70
2022-12-13T12:17:13.937Z,78.70
2022-12-13T12:19:41.796Z,80.00
2022-12-13T12:22:50.598Z,79.50
2022-12-13T12:26:04.848Z,77.80
2022-12-13T12:30:08.847Z,77.20
2022-12-13T12:37:51.433Z,76.80
2022-12-13T12:41:15.158Z,75.30
2022-12-13T12:43:42.945Z,74.90
2022-12-13T12:47:01.917Z,74.90
2022-12-13T12:51:46.690Z,75.50
2022-12-13T12:54:35.018Z,76.50
2022-12-13T13:04:01.527Z,76.40
2022-12-13T13:06:31.769Z,76.50
2022-12-13T13:09:07.081Z,77.30
2022-12-13T13:11:44.217Z,77.60
2022-12-13T13:14:38.091Z,77.10
2022-12-13T13:18:57.192Z,78.00
2022-12-13T13:21:36.214Z,78.90
2022-12-13T13:24:17.192Z,79.40
2022-12-13T13:26:48.493Z,79.70
2022-12-13T13:29:48.091Z,91.00
2022-12-13T13:32:29.699Z,80.60
2022-12-13T13:35:47.573Z,81.00
2022-12-13T13:38:47.399Z,81.40
2022-12-13T13:41:39.318Z,80.70
2022-12-13T13:46:16.438Z,80.40
2022-12-13T13:49:03.564Z,80.10
2022-12-13T13:58:27.466Z,81.00
2022-12-13T14:01:35.229Z,81.70
2022-12-13T14:09:38.608Z,82.10
2022-12-13T14:16:35.450Z,81.50
2022-12-13T14:22:08.760Z,80.20
2022-12-13T14:26:23.422Z,80.20
2022-12-13T14:28:52.300Z,80.00
2022-12-13T14:32:08.654Z,80.00
2022-12-13T14:34:53.592Z,80.10
2022-12-13T14:37:30.113Z,81.00
2022-12-13T14:39:58.512Z,81.70
2022-12-13T14:42:30.872Z,82.60
2022-12-13T14:45:18.828Z,93.30
2022-12-13T14:47:45.749Z,93.70
2022-12-13T14:50:14.583Z,93.80
2022-12-13T14:55:26.020Z,94.50
2022-12-13T14:57:54.969Z,94.80
2022-12-13T15:00:45.522Z,89.10
2022-12-13T15:03:25.702Z,95.00
2022-12-13T15:05:54.451Z,95.30
2022-12-13T15:10:59.557Z,88.10
2022-12-13T15:16:26.426Z,95.30
2022-12-13T15:19:28.958Z,88.90
2022-12-13T15:22:13.223Z,91.60
2022-12-13T15:24:41.673Z,90.50
2022-12-13T15:27:10.126Z,97.80
2022-12-13T15:32:16.059Z,91.30
2022-12-13T15:37:34.527Z,91.80
2022-12-13T15:40:08.308Z,92.10
2022-12-13T15:42:39.822Z,96.70
2022-12-13T15:45:17.295Z,93.00
2022-12-13T15:47:54.151Z,99.90
2022-12-13T15:50:36.742Z,93.30
2022-12-13T15:55:47.418Z,93.60
2022-12-13T15:58:31.813Z,94.10
2022-12-13T16:03:47.132Z,94.20
2022-12-13T16:06:23.414Z,94.20
2022-12-13T16:08:51.416Z,94.30
2022-12-13T16:11:29.524Z,94.40
2022-12-13T16:20:59.716Z,94.50
2022-12-13T16:25:56.858Z,95.00
2022-12-13T16:31:15.313Z,99.90
2022-12-13T16:33:42.584Z,99.70
2022-12-13T16:36:10.990Z,96.10
2022-12-13T16:41:09.802Z,96.10
2022-12-13T16:43:56.957Z,97.90
2022-12-13T16:47:17.505Z,97.20
2022-12-13T16:49:50.510Z,97.00
2022-12-13T16:54:50.866Z,97.40
2022-12-13T16:59:44.813Z,99.90
2022-12-13T17:02:15.856Z,97.20
2022-12-13T17:07:10.176Z,96.80
2022-12-13T17:09:36.475Z,97.80
2022-12-13T17:19:24.126Z,99.90
2022-12-13T17:21:50.316Z,96.60
2022-12-13T17:26:54.453Z,98.00
2022-12-13T17:29:24.755Z,99.90
2022-12-13T17:31:52.202Z,96.50
2022-12-13T17:36:45.282Z,95.00
2022-12-13T17:39:12.602Z,93.80
2022-12-13T17:41:39.421Z,99.90
2022-12-13T17:44:06.502Z,93.90
2022-12-13T17:46:33.885Z,99.90
2022-12-13T17:56:22.849Z,95.90
2022-12-13T18:01:23.151Z,99.00
2022-12-13T18:03:51.807Z,98.00
2022-12-13T18:06:18.421Z,97.60
2022-12-13T18:08:47.618Z,97.30
2022-12-13T18:11:33.707Z,93.60
2022-12-13T18:14:01.805Z,99.90
2022-12-13T18:19:09.572Z,94.10
2022-12-13T18:24:05.736Z,94.10
2022-12-13T18:26:32.647Z,99.90
2022-12-13T18:31:27.249Z,95.80
2022-12-13T18:36:22.620Z,94.20
2022-12-13T18:38:50.009Z,99.90
2022-12-13T18:41:19.742Z,96.40
2022-12-13T18:43:48.105Z,95.40
2022-12-13T18:46:15.557Z,99.90
2022-12-13T18:48:42.141Z,99.90
2022-12-13T18:53:38.123Z,99.00
2022-12-13T18:56:17.516Z,94.40
2022-12-13T18:58:45.273Z,94.30
2022-12-13T19:01:12.228Z,96.10
2022-12-13T19:03:39.223Z,99.90
2022-12-13T19:06:06.354Z,96.50
2022-12-13T19:08:33.053Z,94.50
2022-12-13T19:11:01.119Z,94.10
2022-12-13T19:13:28.796Z,96.30
2022-12-13T19:15:58.570Z,99.10
2022-12-13T19:20:53.282Z,94.50
2022-12-13T19:25:48.605Z,99.90
2022-12-13T19:30:46.109Z,96.40
2022-12-13T19:35:46.829Z,95.00
2022-12-13T19:43:10.894Z,99.90
2022-12-13T19:48:06.221Z,93.50
2022-12-13T19:50:32.615Z,99.90
2022-12-13T19:57:57.315Z,98.80
2022-12-13T20:05:19.455Z,94.70
2022-12-13T20:07:48.748Z,99.90
2022-12-13T20:10:19.321Z,94.00
2022-12-13T20:12:45.740Z,99.90
2022-12-13T20:17:40.766Z,96.40
2022-12-13T20:20:08.195Z,94.30
2022-12-13T20:25:03.380Z,99.90
2022-12-13T20:30:00.447Z,94.70
2022-12-13T20:34:55.105Z,95.10
2022-12-13T20:39:50.401Z,99.90
2022-12-13T20:42:18.186Z,95.20
2022-12-13T20:47:16.693Z,95.40
2022-12-13T20:49:48.339Z,95.30
2022-12-13T20:52:17.083Z,95.50
2022-12-13T20:54:45.124Z,95.30
2022-12-13T20:59:41.932Z,95.40
2022-12-13T21:02:11.841Z,97.30
2022-12-13T21:04:41.327Z,99.90
2022-12-13T21:07:09.098Z,99.90
2022-12-13T21:09:35.372Z,98.40
2022-12-13T21:17:01.437Z,95.90
2022-12-13T21:19:35.821Z,96.10
2022-12-13T21:22:05.878Z,98.20
2022-12-13T21:24:32.350Z,98.30
2022-12-13T21:26:59.597Z,96.00
2022-12-13T21:36:49.496Z,96.90
2022-12-13T21:39:17.546Z,97.30
2022-12-13T21:44:12.831Z,96.80
2022-12-13T21:49:36.337Z,97.40
2022-12-13T21:57:16.981Z,99.90
2022-12-13T22:02:19.806Z,96.00
2022-12-13T22:04:56.930Z,96.00
2022-12-13T22:07:33.201Z,96.00
2022-12-13T22:10:01.063Z,95.80
2022-12-13T22:12:35.260Z,97.00
2022-12-13T22:20:13.023Z,95.70
2022-12-13T22:22:40.163Z,95.80
2022-12-13T22:25:07.512Z,99.40
2022-12-13T22:27:34.325Z,99.90
2022-12-13T22:32:29.512Z,95.50
2022-12-13T22:39:50.591Z,99.70
2022-12-13T22:52:04.697Z,99.90
2022-12-13T23:04:28.571Z,99.90
2022-12-13T23:06:54.830Z,99.90
2022-12-13T23:19:51.015Z,96.20
2022-12-13T23:22:23.787Z,97.90
2022-12-13T23:24:51.150Z,96.20
2022-12-13T23:27:18.452Z,99.90
2022-12-13T23:29:44.641Z,99.90
2022-12-13T23:37:04.367Z,99.90
2022-12-13T23:41:57.234Z,99.90
2022-12-13T23:46:52.390Z,99.70
2022-12-13T23:51:45.932Z,99.90
2022-12-13T23:56:42.071Z,99.90
